Time;durP1;ratioP1;P1;durP2;ratioP2;P2;SDS_P1;SDS_P2;PMS_P1;PMS_P2;Temp;Humidity;BMP_temperature;BMP_pressure;BME280_temperature;BME280_humidity;BME280_pressure;Samples;Min_cycle;Max_cycle;Signal;HPM_P1;HPM_P2
2021/04/10 00:01:19;;;;;;;0.30;0.20;;;;;;;11.20;91.97;99683.66;5047716;28;20491;-57
2021/04/10 00:03:45;;;;;;;0.30;0.20;;;;;;;11.13;92.29;99680.41;5036785;28;20957;-57
2021/04/10 00:06:12;;;;;;;0.30;0.20;;;;;;;11.16;92.54;99680.25;5039737;28;20516;-57
2021/04/10 00:08:38;;;;;;;0.30;0.20;;;;;;;11.11;91.98;99674.28;5041727;28;20986;-57
2021/04/10 00:11:06;;;;;;;0.30;0.20;;;;;;;11.11;92.95;99671.63;5047673;28;20521;-57
2021/04/10 00:13:33;;;;;;;0.30;0.20;;;;;;;11.37;91.32;99675.84;5047606;28;20451;-57
2021/04/10 00:15:59;;;;;;;0.30;0.20;;;;;;;11.17;92.33;99683.78;5040499;28;20454;-57
2021/04/10 00:18:25;;;;;;;1.17;1.17;;;;;;;11.16;91.88;99677.59;5041210;28;20987;-57
2021/04/10 00:20:51;;;;;;;0.30;0.20;;;;;;;11.24;89.83;99679.97;5047596;28;20510;-57
2021/04/10 00:23:18;;;;;;;1.33;1.23;;;;;;;11.37;89.04;99675.84;5047023;28;20861;-57
2021/04/10 00:25:44;;;;;;;0.30;0.20;;;;;;;11.64;87.23;99684.44;5023389;28;20454;-57
2021/04/10 00:28:10;;;;;;;0.93;0.93;;;;;;;11.76;86.80;99691.91;5040806;28;20463;-57
2021/04/10 00:30:36;;;;;;;0.30;0.20;;;;;;;11.48;88.29;99691.34;5029763;28;20452;-57
2021/04/10 00:33:03;;;;;;;0.30;0.20;;;;;;;11.38;89.13;99679.41;5047528;28;20601;-58
2021/04/10 00:35:29;;;;;;;0.30;0.20;;;;;;;11.14;90.98;99692.75;5040498;28;20458;-57
2021/04/10 00:37:58;;;;;;;0.30;0.20;;;;;;;11.10;92.42;99709.78;5023541;28;20459;-57
2021/04/10 00:40:25;;;;;;;0.30;0.20;;;;;;;11.28;92.74;99706.38;5040896;28;20454;-57
2021/04/10 00:42:51;;;;;;;0.30;0.20;;;;;;;11.40;91.44;99715.66;5040283;28;20565;-57
2021/04/10 00:45:18;;;;;;;0.30;0.20;;;;;;;11.38;92.94;99717.50;5046466;28;20451;-57
2021/04/10 00:47:44;;;;;;;0.30;0.20;;;;;;;11.01;96.05;99706.63;5047223;28;20446;-57
2021/04/10 00:50:10;;;;;;;0.30;0.20;;;;;;;10.79;98.57;99704.78;5033949;28;20451;-57
2021/04/10 00:52:37;;;;;;;0.30;0.20;;;;;;;10.70;100.00;99694.53;5047292;28;20516;-57
2021/04/10 00:55:06;;;;;;;0.30;0.20;;;;;;;10.71;100.00;99701.56;5041147;28;20916;-57
2021/04/10 00:57:32;;;;;;;1.03;0.93;;;;;;;10.64;100.00;99694.75;5051628;28;20466;-58
2021/04/10 00:59:58;;;;;;;0.30;0.20;;;;;;;10.54;100.00;99699.53;5041443;28;20512;-57
2021/04/10 01:02:26;;;;;;;0.30;0.20;;;;;;;10.58;100.00;99697.66;5039689;28;20913;-57
2021/04/10 01:04:53;;;;;;;0.30;0.20;;;;;;;10.58;100.00;99690.53;5015658;28;20457;-57
2021/04/10 01:07:20;;;;;;;0.40;0.40;;;;;;;10.62;100.00;99688.63;5046634;28;20861;-58
2021/04/10 01:09:52;;;;;;;0.30;0.20;;;;;;;10.56;100.00;99688.88;5042351;28;20447;-57
2021/04/10 01:12:39;;;;;;;0.30;0.20;;;;;;;10.67;100.00;99700.81;5039231;28;20832;-57
2021/04/10 01:15:17;;;;;;;0.30;0.20;;;;;;;10.62;100.00;99692.16;5041436;28;20448;-57
2021/04/10 01:17:54;;;;;;;0.30;0.20;;;;;;;10.57;100.00;99687.94;5040496;28;20940;-58
2021/04/10 01:20:39;;;;;;;0.30;0.20;;;;;;;10.51;100.00;99690.81;5039542;28;20944;-57
2021/04/10 01:23:24;;;;;;;0.30;0.20;;;;;;;10.57;100.00;99694.13;5041582;28;20904;-57
2021/04/10 01:26:11;;;;;;;0.30;0.20;;;;;;;10.57;100.00;99688.81;5028102;28;20450;-57
2021/04/10 01:28:49;;;;;;;0.53;0.53;;;;;;;10.55;100.00;99684.47;5039615;28;20438;-57
2021/04/10 01:31:18;;;;;;;0.30;0.20;;;;;;;10.48;100.00;99688.28;5040788;28;20489;-57
2021/04/10 01:33:50;;;;;;;0.30;0.20;;;;;;;10.44;100.00;99681.38;5046160;28;20443;-57
2021/04/10 01:36:25;;;;;;;0.30;0.20;;;;;;;10.52;100.00;99676.63;5046320;28;20466;-57
2021/04/10 01:38:52;;;;;;;0.30;0.20;;;;;;;10.49;100.00;99680.25;5028828;28;20512;-57
2021/04/10 01:41:21;;;;;;;0.30;0.20;;;;;;;10.51;100.00;99686.38;5039433;28;20491;-58
2021/04/10 01:43:50;;;;;;;0.40;0.30;;;;;;;10.52;100.00;99680.13;5044353;28;20468;-57
2021/04/10 01:46:19;;;;;;;0.30;0.20;;;;;;;10.50;100.00;99684.66;5046164;28;20455;-57
2021/04/10 01:48:47;;;;;;;0.30;0.20;;;;;;;10.34;100.00;99673.72;5042235;28;20450;-57
2021/04/10 01:51:15;;;;;;;0.30;0.20;;;;;;;10.38;100.00;99677.13;5038832;28;20467;-57
2021/04/10 01:53:41;;;;;;;0.30;0.20;;;;;;;10.53;100.00;99679.22;5042788;28;20865;-57
2021/04/10 01:56:11;;;;;;;0.30;0.20;;;;;;;10.28;100.00;99678.41;5042641;28;20457;-57
2021/04/10 01:58:37;;;;;;;0.30;0.20;;;;;;;10.44;100.00;99673.41;5033914;28;20666;-57
2021/04/10 02:01:10;;;;;;;0.30;0.20;;;;;;;10.43;100.00;99674.31;5038996;28;20490;-57
2021/04/10 02:03:37;;;;;;;0.30;0.20;;;;;;;10.41;100.00;99681.47;5041313;28;20448;-57
2021/04/10 02:06:04;;;;;;;0.30;0.20;;;;;;;10.43;100.00;99683.16;5045917;28;20460;-57
2021/04/10 02:08:33;;;;;;;0.30;0.20;;;;;;;10.50;100.00;99679.31;5044081;28;20454;-57
2021/04/10 02:11:01;;;;;;;0.30;0.20;;;;;;;10.52;100.00;99692.56;5038946;28;20459;-57
2021/04/10 02:13:30;;;;;;;0.30;0.20;;;;;;;10.52;100.00;99696.06;5039568;28;20463;-57
2021/04/10 02:15:58;;;;;;;0.30;0.20;;;;;;;10.48;100.00;99694.47;5045031;28;20456;-57
2021/04/10 02:18:24;;;;;;;0.30;0.20;;;;;;;10.50;100.00;99695.28;5045546;28;20455;-58
2021/04/10 02:20:50;;;;;;;0.40;0.20;;;;;;;10.61;100.00;99700.19;5038387;28;20514;-57
2021/04/10 02:23:19;;;;;;;1.03;0.73;;;;;;;10.57;100.00;99694.13;5038947;28;20456;-58
2021/04/10 02:25:45;;;;;;;0.57;0.57;;;;;;;10.72;100.00;99702.44;5026275;28;20500;-58
2021/04/10 02:28:12;;;;;;;0.30;0.20;;;;;;;10.63;100.00;99693.88;5038674;28;20507;-58
2021/04/10 02:30:39;;;;;;;1.40;0.73;;;;;;;10.70;100.00;99699.84;5052313;28;20450;-58
2021/04/10 02:33:08;;;;;;;0.30;0.20;;;;;;;10.59;100.00;99705.56;5038428;28;20482;-57
2021/04/10 02:35:48;;;;;;;0.30;0.20;;;;;;;10.54;100.00;99699.53;5025974;28;20489;-58
2021/04/10 02:38:17;;;;;;;0.30;0.20;;;;;;;10.56;100.00;99697.72;5038799;28;20450;-57
2021/04/10 02:40:48;;;;;;;0.30;0.20;;;;;;;10.50;100.00;99694.41;5043124;28;20451;-57
2021/04/10 02:43:26;;;;;;;0.30;0.20;;;;;;;10.55;100.00;99700.41;5045565;28;20576;-58
2021/04/10 02:45:58;;;;;;;0.30;0.17;;;;;;;10.56;100.00;99712.78;5043139;28;20443;-57
2021/04/10 02:48:43;;;;;;;0.30;0.20;;;;;;;10.48;100.00;99715.72;5038552;28;21065;-57
2021/04/10 02:51:10;;;;;;;0.30;0.20;;;;;;;10.41;100.00;99716.88;5020931;28;20509;-57
2021/04/10 02:53:38;;;;;;;0.97;0.97;;;;;;;10.43;100.00;99722.16;5042852;28;20447;-57
2021/04/10 02:56:06;;;;;;;0.47;0.30;;;;;;;10.41;100.00;99716.88;5047711;28;20475;-58
2021/04/10 02:58:34;;;;;;;0.30;0.20;;;;;;;10.40;100.00;99720.44;5041781;28;20455;-57
2021/04/10 03:01:00;;;;;;;0.57;0.57;;;;;;;10.38;100.00;99715.19;5045261;28;20447;-57
2021/04/10 03:03:29;;;;;;;0.30;0.20;;;;;;;10.35;100.00;99712.66;5036636;28;20451;-57
2021/04/10 03:05:56;;;;;;;0.30;0.20;;;;;;;10.37;100.00;99710.81;5032838;28;20462;-57
2021/04/10 03:08:24;;;;;;;0.30;0.20;;;;;;;10.34;100.00;99718.91;5041562;28;20448;-58
2021/04/10 03:10:53;;;;;;;0.30;0.20;;;;;;;10.27;100.00;99716.50;5045489;28;20454;-57
2021/04/10 03:13:22;;;;;;;0.30;0.20;;;;;;;10.19;100.00;99708.81;5025347;28;20959;-57
2021/04/10 03:15:53;;;;;;;0.30;0.20;;;;;;;10.18;100.00;99708.88;5038446;28;20463;-57
2021/04/10 03:18:21;;;;;;;0.60;0.60;;;;;;;10.22;100.00;99702.53;5039199;28;20553;-57
2021/04/10 03:20:48;;;;;;;0.30;0.20;;;;;;;10.28;100.00;99712.94;5045190;28;20840;-57
2021/04/10 03:23:14;;;;;;;0.30;0.20;;;;;;;10.36;100.00;99714.38;5044513;28;20552;-58
2021/04/10 03:25:41;;;;;;;0.30;0.20;;;;;;;10.41;100.00;99710.69;5038392;28;20451;-57
2021/04/10 03:28:09;;;;;;;0.30;0.20;;;;;;;10.30;100.00;99711.97;5042750;28;20466;-57
2021/04/10 03:30:37;;;;;;;0.30;0.20;;;;;;;10.39;100.00;99714.25;5049560;28;20448;-57
2021/04/10 03:33:03;;;;;;;0.30;0.20;;;;;;;10.30;100.00;99714.63;5048532;28;20569;-58
2021/04/10 03:35:31;;;;;;;0.30;0.20;;;;;;;10.28;100.00;99707.59;5041654;28;20461;-57
2021/04/10 03:37:58;;;;;;;0.30;0.20;;;;;;;10.24;100.00;99706.88;5041551;28;20452;-58
2021/04/10 03:40:26;;;;;;;0.30;0.20;;;;;;;10.30;100.00;99711.09;5030193;28;20518;-58
2021/04/10 03:42:56;;;;;;;0.40;0.30;;;;;;;10.38;100.00;99720.50;5048301;28;21014;-58
2021/04/10 03:45:23;;;;;;;0.30;0.20;;;;;;;10.58;100.00;99721.56;5043227;28;20989;-57
2021/04/10 03:47:55;;;;;;;1.07;0.53;;;;;;;10.36;100.00;99721.50;5041926;28;20458;-57
2021/04/10 03:50:22;;;;;;;1.40;1.40;;;;;;;10.34;100.00;99724.22;5045955;28;20547;-57
2021/04/10 03:52:51;;;;;;;0.40;0.37;;;;;;;10.35;100.00;99725.94;5047894;28;20533;-57
2021/04/10 03:55:19;;;;;;;0.30;0.20;;;;;;;10.34;100.00;99723.34;5044718;28;20465;-57
2021/04/10 03:57:46;;;;;;;0.30;0.20;;;;;;;10.37;100.00;99732.06;5024724;28;20455;-57
2021/04/10 04:00:12;;;;;;;0.30;0.20;;;;;;;10.34;100.00;99734.84;5044970;28;20447;-57
2021/04/10 04:02:39;;;;;;;0.30;0.20;;;;;;;10.33;100.00;99733.09;5041030;28;20501;-57
2021/04/10 04:05:06;;;;;;;0.30;0.20;;;;;;;10.36;100.00;99735.63;5033176;28;20455;-57
2021/04/10 04:07:32;;;;;;;0.40;0.40;;;;;;;10.47;100.00;99734.38;5047972;28;20869;-57
2021/04/10 04:09:59;;;;;;;0.30;0.20;;;;;;;10.53;100.00;99739.47;5045625;28;20462;-57
2021/04/10 04:12:25;;;;;;;0.83;0.83;;;;;;;10.56;100.00;99737.56;5040936;28;20470;-57
2021/04/10 04:14:51;;;;;;;0.30;0.20;;;;;;;10.68;100.00;99734.44;5043280;28;20452;-57
2021/04/10 04:17:17;;;;;;;0.30;0.20;;;;;;;10.70;100.00;99749.47;5047622;28;20451;-57
2021/04/10 04:19:43;;;;;;;0.30;0.20;;;;;;;10.70;100.00;99755.66;5045706;28;20469;-58
2021/04/10 04:22:10;;;;;;;0.30;0.20;;;;;;;10.74;100.00;99754.63;5023166;28;20934;-57
2021/04/10 04:24:36;;;;;;;0.30;0.20;;;;;;;10.78;100.00;99761.53;5043207;28;20456;-57
2021/04/10 04:27:04;;;;;;;0.30;0.20;;;;;;;10.81;100.00;99764.06;5047375;28;20466;-57
2021/04/10 04:29:30;;;;;;;0.30;0.20;;;;;;;10.78;100.00;99769.50;5045700;28;20845;-58
2021/04/10 04:31:57;;;;;;;0.30;0.20;;;;;;;10.75;100.00;99766.13;5040543;28;20485;-57
2021/04/10 04:34:23;;;;;;;0.40;0.30;;;;;;;10.73;100.00;99770.63;5042327;28;20458;-57
2021/04/10 04:36:49;;;;;;;0.30;0.20;;;;;;;10.78;100.00;99766.84;5047262;28;20456;-57
2021/04/10 04:39:15;;;;;;;0.30;0.20;;;;;;;10.83;100.00;99775.53;5044861;28;20815;-56
2021/04/10 04:41:42;;;;;;;0.30;0.20;;;;;;;10.82;100.00;99775.56;5022614;28;21041;-56
2021/04/10 04:44:08;;;;;;;0.30;0.20;;;;;;;10.75;100.00;99787.38;5042228;28;20535;-56
2021/04/10 04:46:34;;;;;;;0.30;0.20;;;;;;;10.75;100.00;99787.38;5046742;28;20451;-56
2021/04/10 04:49:00;;;;;;;0.30;0.20;;;;;;;10.76;100.00;99794.44;5045557;28;20446;-56
2021/04/10 04:51:27;;;;;;;0.30;0.20;;;;;;;10.74;100.00;99789.16;5039397;28;21033;-56
2021/04/10 04:53:53;;;;;;;0.30;0.20;;;;;;;10.70;100.00;99787.56;5042412;28;20506;-56
2021/04/10 04:56:19;;;;;;;0.30;0.20;;;;;;;10.69;100.00;99793.81;5051481;28;20455;-57
2021/04/10 04:58:45;;;;;;;0.30;0.20;;;;;;;10.64;100.00;99798.41;5042306;28;20505;-57
2021/04/10 05:01:11;;;;;;;0.30;0.20;;;;;;;10.63;100.00;99789.56;5046415;28;20479;-56
2021/04/10 05:03:37;;;;;;;0.30;0.20;;;;;;;10.67;100.00;99801.81;5037002;28;20570;-56
2021/04/10 05:06:04;;;;;;;0.30;0.20;;;;;;;10.67;100.00;99796.50;5044791;28;20452;-56
2021/04/10 05:08:30;;;;;;;0.30;0.20;;;;;;;10.69;100.00;99799.13;5044834;28;20455;-55
2021/04/10 05:10:56;;;;;;;0.30;0.20;;;;;;;10.64;100.00;99807.25;5039407;28;20504;-54
2021/04/10 05:13:24;;;;;;;0.30;0.20;;;;;;;10.71;100.00;99807.03;5041717;28;20473;-54
2021/04/10 05:15:50;;;;;;;0.30;0.20;;;;;;;10.70;100.00;99811.50;5046667;28;20451;-55
2021/04/10 05:18:16;;;;;;;0.30;0.20;;;;;;;10.66;100.00;99813.38;5044889;28;20605;-55
2021/04/10 05:20:43;;;;;;;0.30;0.20;;;;;;;10.67;100.00;99823.06;5039392;28;20960;-55
2021/04/10 05:23:09;;;;;;;0.40;0.40;;;;;;;10.72;100.00;99830.03;5041281;28;20565;-55
2021/04/10 05:25:35;;;;;;;0.30;0.20;;;;;;;10.72;100.00;99836.22;5046291;28;20451;-55
2021/04/10 05:28:01;;;;;;;0.30;0.20;;;;;;;10.72;100.00;99833.56;5044670;28;20450;-56
2021/04/10 05:30:27;;;;;;;0.40;0.37;;;;;;;10.65;100.00;99837.34;5039522;28;20983;-55
2021/04/10 05:32:57;;;;;;;0.30;0.20;;;;;;;10.72;100.00;99849.50;5040477;28;20510;-55
2021/04/10 05:35:23;;;;;;;0.30;0.20;;;;;;;10.70;100.00;99847.84;5002608;28;20448;-55
2021/04/10 05:37:49;;;;;;;0.77;0.77;;;;;;;10.71;100.00;99846.91;5045247;28;20458;-55
2021/04/10 05:40:15;;;;;;;0.30;0.20;;;;;;;10.72;100.00;99856.63;5039635;28;20447;-55
2021/04/10 05:42:43;;;;;;;0.30;0.20;;;;;;;10.66;100.00;99855.03;5040220;28;20487;-55
2021/04/10 05:45:10;;;;;;;0.30;0.20;;;;;;;10.71;100.00;99857.53;5028312;28;20447;-55
2021/04/10 05:47:36;;;;;;;0.30;0.20;;;;;;;10.68;100.00;99863.81;5045516;28;20447;-55
2021/04/10 05:50:03;;;;;;;0.50;0.47;;;;;;;10.68;100.00;99866.47;5032319;28;21014;-55
2021/04/10 05:52:29;;;;;;;0.30;0.20;;;;;;;10.73;100.00;99863.66;5046028;28;20470;-55
2021/04/10 05:54:55;;;;;;;0.30;0.20;;;;;;;10.74;100.00;99866.25;5039196;28;20455;-55
2021/04/10 05:57:21;;;;;;;0.30;0.20;;;;;;;10.74;100.00;99866.25;5025244;28;20475;-55
2021/04/10 05:59:47;;;;;;;0.30;0.20;;;;;;;10.73;100.00;99866.31;5040661;28;20439;-55
2021/04/10 06:02:17;;;;;;;0.30;0.20;;;;;;;10.72;100.00;99867.25;5038980;28;20495;-55
2021/04/10 06:04:44;;;;;;;0.30;0.20;;;;;;;10.50;100.00;99873.31;5045105;28;20484;-55
2021/04/10 06:07:10;;;;;;;0.30;0.20;;;;;;;10.54;100.00;99876.72;5045689;28;20453;-55
2021/04/10 06:09:36;;;;;;;0.40;0.40;;;;;;;10.50;100.00;99875.97;5039681;28;20524;-55
2021/04/10 06:12:04;;;;;;;0.30;0.20;;;;;;;10.51;100.00;99877.69;5038339;28;20893;-55
2021/04/10 06:14:30;;;;;;;0.30;0.20;;;;;;;10.40;100.00;99882.50;5045052;28;20451;-55
2021/04/10 06:16:56;;;;;;;0.30;0.20;;;;;;;10.42;100.00;99890.47;5045891;28;20458;-55
2021/04/10 06:19:22;;;;;;;0.30;0.20;;;;;;;10.42;100.00;99890.47;5039354;28;20447;-55
2021/04/10 06:21:49;;;;;;;0.30;0.20;;;;;;;10.39;100.00;99896.72;5038426;28;20495;-55
2021/04/10 06:24:15;;;;;;;0.30;0.20;;;;;;;10.45;100.00;99891.22;5044835;28;20451;-55
2021/04/10 06:26:42;;;;;;;0.30;0.20;;;;;;;10.48;100.00;99896.41;5045403;28;20451;-55
2021/04/10 06:29:10;;;;;;;0.30;0.20;;;;;;;10.58;100.00;99894.31;5039242;28;20451;-55
2021/04/10 06:31:37;;;;;;;0.30;0.20;;;;;;;10.65;100.00;99896.69;5038253;28;20541;-55
2021/04/10 06:34:03;;;;;;;0.30;0.20;;;;;;;10.72;100.00;99892.03;5044452;28;20537;-55
2021/04/10 06:36:30;;;;;;;1.00;1.00;;;;;;;10.87;100.00;99899.47;5045473;28;20454;-55
2021/04/10 06:38:56;;;;;;;0.30;0.20;;;;;;;10.85;100.00;99901.31;5039872;28;20451;-55
2021/04/10 06:41:23;;;;;;;0.30;0.20;;;;;;;10.81;100.00;99912.09;5038561;28;20467;-55
2021/04/10 06:43:51;;;;;;;0.30;0.20;;;;;;;10.80;100.00;99907.69;5044230;28;20459;-55
2021/04/10 06:46:17;;;;;;;0.30;0.20;;;;;;;10.81;100.00;99899.66;5045244;28;20450;-55
2021/04/10 06:48:45;;;;;;;0.30;0.20;;;;;;;10.87;100.00;99912.75;5022411;28;20501;-55
2021/04/10 06:51:15;;;;;;;0.30;0.20;;;;;;;11.03;100.00;99915.72;5038355;28;20495;-54
2021/04/10 06:53:46;;;;;;;0.30;0.20;;;;;;;10.87;100.00;99911.88;5042061;28;20494;-55
2021/04/10 06:56:18;;;;;;;0.30;0.20;;;;;;;10.81;100.00;99914.75;5041071;28;20534;-55
2021/04/10 06:58:56;;;;;;;0.30;0.20;;;;;;;10.92;100.00;99910.78;5039634;28;20496;-54
2021/04/10 07:01:22;;;;;;;0.30;0.20;;;;;;;10.71;100.00;99926.66;5040176;28;20893;-55
2021/04/10 07:03:51;;;;;;;0.30;0.20;;;;;;;10.67;100.00;99918.75;5042316;28;20505;-55
2021/04/10 07:06:19;;;;;;;0.30;0.20;;;;;;;10.79;100.00;99919.25;5048243;28;20460;-55
2021/04/10 07:08:46;;;;;;;0.30;0.20;;;;;;;10.59;100.00;99914.66;5049173;28;20442;-55
2021/04/10 07:11:15;;;;;;;0.30;0.20;;;;;;;10.73;100.00;99922.16;5043194;28;20900;-55
2021/04/10 07:13:43;;;;;;;0.30;0.20;;;;;;;10.70;100.00;99920.47;5042104;28;20447;-55
2021/04/10 07:16:10;;;;;;;0.30;0.20;;;;;;;10.59;100.00;99919.97;5047041;28;20449;-55
2021/04/10 07:18:36;;;;;;;0.30;0.20;;;;;;;10.40;100.00;99925.03;5049119;28;20819;-55
2021/04/10 07:21:20;;;;;;;0.30;0.20;;;;;;;10.50;100.00;99933.56;5043505;28;20457;-55
2021/04/10 07:23:54;;;;;;;0.30;0.20;;;;;;;10.73;100.00;99932.78;5042154;28;20952;-55
2021/04/10 07:26:49;;;;;;;0.30;0.20;;;;;;;10.58;100.00;99934.19;5043137;28;20451;-55
2021/04/10 07:29:39;;;;;;;0.80;0.80;;;;;;;10.46;100.00;99931.94;5034037;28;20447;-55
2021/04/10 07:32:35;;;;;;;0.67;0.63;;;;;;;10.47;100.00;99928.34;5015637;28;20474;-55
2021/04/10 07:35:07;;;;;;;0.30;0.20;;;;;;;10.48;100.00;99940.72;5024329;28;20934;-54
2021/04/10 07:37:35;;;;;;;0.30;0.20;;;;;;;10.51;100.00;99940.59;5044383;28;20938;-55
2021/04/10 07:40:10;;;;;;;0.30;0.20;;;;;;;10.52;100.00;99942.34;5048245;28;20448;-55
2021/04/10 07:42:39;;;;;;;0.30;0.20;;;;;;;10.38;100.00;99949.00;5047013;28;20862;-55
2021/04/10 07:45:32;;;;;;;0.30;0.20;;;;;;;10.35;100.00;99959.72;5041588;28;20443;-55
2021/04/10 07:48:01;;;;;;;0.30;0.20;;;;;;;10.36;100.00;99956.16;5031491;28;20498;-55
2021/04/10 07:50:28;;;;;;;0.30;0.20;;;;;;;10.52;100.00;99955.63;5045061;28;20502;-55
2021/04/10 07:52:54;;;;;;;0.30;0.20;;;;;;;10.46;100.00;99963.81;5048399;28;20464;-55
2021/04/10 07:55:40;;;;;;;0.30;0.20;;;;;;;10.50;100.00;99966.31;5044380;28;20451;-55
2021/04/10 07:58:25;;;;;;;0.30;0.20;;;;;;;10.32;100.00;99969.59;5037321;28;20861;-54
2021/04/10 08:01:01;;;;;;;0.40;0.30;;;;;;;10.30;100.00;99969.66;5030516;28;20455;-55
2021/04/10 08:03:35;;;;;;;0.30;0.20;;;;;;;10.32;100.00;99970.47;5044338;28;20490;-55
2021/04/10 08:06:04;;;;;;;0.30;0.20;;;;;;;10.35;100.00;99978.31;5041255;28;20443;-54
2021/04/10 08:08:44;;;;;;;0.30;0.20;;;;;;;10.34;100.00;99979.25;5043294;28;20447;-55
2021/04/10 08:11:10;;;;;;;0.30;0.20;;;;;;;10.43;100.00;99987.84;5047512;28;20476;-55
2021/04/10 08:13:36;;;;;;;0.30;0.20;;;;;;;10.46;100.00;99988.59;5046338;28;20985;-55
2021/04/10 08:16:17;;;;;;;0.30;0.20;;;;;;;10.46;100.00;99987.75;5040676;28;20451;-54
2021/04/10 08:18:59;;;;;;;0.30;0.20;;;;;;;10.48;100.00;99989.41;5040987;28;20497;-54
2021/04/10 08:21:28;;;;;;;0.30;0.20;;;;;;;10.46;100.00;99998.38;5043211;28;20479;-54
2021/04/10 08:23:56;;;;;;;0.30;0.20;;;;;;;10.35;100.00;99990.75;5047595;28;20952;-54
2021/04/10 08:26:24;;;;;;;0.30;0.20;;;;;;;10.47;100.00;100000.97;5046234;28;20447;-54
2021/04/10 08:28:50;;;;;;;0.30;0.20;;;;;;;10.72;100.00;99997.50;5040522;28;20868;-54
2021/04/10 08:31:17;;;;;;;0.30;0.20;;;;;;;10.66;100.00;99990.59;5042209;28;20487;-54
2021/04/10 08:33:44;;;;;;;0.30;0.20;;;;;;;10.64;100.00;99992.44;5039419;28;20455;-54
2021/04/10 08:36:11;;;;;;;0.30;0.20;;;;;;;10.51;100.00;100001.72;5042078;28;20505;-54
2021/04/10 08:38:39;;;;;;;0.30;0.20;;;;;;;10.59;100.00;100000.56;5047354;28;20459;-54
2021/04/10 08:41:07;;;;;;;0.50;0.50;;;;;;;10.60;100.00;99998.78;5046284;28;20454;-54
2021/04/10 08:43:37;;;;;;;0.30;0.20;;;;;;;10.49;100.00;100007.09;5040409;28;20486;-54
2021/04/10 08:46:05;;;;;;;0.30;0.20;;;;;;;10.53;100.00;100008.72;5040480;28;20451;-54
2021/04/10 08:48:33;;;;;;;0.30;0.20;;;;;;;10.63;100.00;100012.81;5027780;28;20504;-54
2021/04/10 08:51:02;;;;;;;0.30;0.20;;;;;;;10.74;100.00;100004.50;5039761;28;20505;-54
2021/04/10 08:53:33;;;;;;;0.30;0.20;;;;;;;10.66;100.00;100001.22;5046069;28;20447;-55
2021/04/10 08:56:06;;;;;;;0.30;0.20;;;;;;;10.80;100.00;100008.72;5048485;28;20811;-54
2021/04/10 08:58:32;;;;;;;0.30;0.20;;;;;;;10.57;100.00;100005.06;5033537;28;20448;-55
2021/04/10 09:01:04;;;;;;;0.30;0.20;;;;;;;10.55;100.00;100011.34;5046601;28;20492;-55
2021/04/10 09:03:45;;;;;;;0.30;0.20;;;;;;;10.65;100.00;100004.81;5043610;28;20486;-54
2021/04/10 09:06:16;;;;;;;0.30;0.20;;;;;;;10.80;100.00;100009.59;5039881;28;20451;-55
2021/04/10 09:08:43;;;;;;;0.30;0.20;;;;;;;11.07;100.00;100002.44;5040812;28;20457;-55
2021/04/10 09:11:18;;;;;;;0.30;0.20;;;;;;;11.18;100.00;100008.28;5046374;28;20475;-55
2021/04/10 09:13:46;;;;;;;0.30;0.20;;;;;;;10.94;100.00;100006.47;5028861;28;20477;-54
2021/04/10 09:16:51;;;;;;;0.30;0.20;;;;;;;11.06;100.00;100010.50;5041648;28;20458;-55
2021/04/10 09:19:24;;;;;;;0.30;0.20;;;;;;;11.10;100.00;100005.03;5046064;28;20574;-55
2021/04/10 09:22:00;;;;;;;0.30;0.20;;;;;;;11.30;100.00;100014.94;5028520;28;20533;-55
2021/04/10 09:24:37;;;;;;;0.30;0.20;;;;;;;11.11;100.00;100009.44;5024108;28;20446;-54
2021/04/10 09:27:07;;;;;;;0.30;0.20;;;;;;;11.12;100.00;100008.50;5034027;28;20453;-55
2021/04/10 09:29:50;;;;;;;0.30;0.20;;;;;;;11.53;100.00;100007.00;5023794;28;20455;-55
2021/04/10 09:32:44;;;;;;;0.30;0.20;;;;;;;11.57;100.00;100002.44;5046171;28;20541;-55
2021/04/10 09:35:19;;;;;;;0.30;0.20;;;;;;;11.44;100.00;100001.13;5029031;28;20893;-55
2021/04/10 09:37:57;;;;;;;0.30;0.20;;;;;;;11.42;100.00;99990.56;5044377;28;20454;-54
2021/04/10 09:40:43;;;;;;;0.30;0.20;;;;;;;11.38;100.00;100001.38;5039227;28;20442;-55
2021/04/10 09:43:09;;;;;;;0.30;0.20;;;;;;;11.88;100.00;100004.81;5039218;28;20572;-54
2021/04/10 09:45:37;;;;;;;0.30;0.20;;;;;;;11.73;100.00;100002.72;5052763;28;20505;-55
2021/04/10 09:48:04;;;;;;;0.30;0.20;;;;;;;11.53;100.00;99998.16;5039300;28;20502;-54
2021/04/10 09:50:35;;;;;;;0.30;0.20;;;;;;;11.74;100.00;100009.78;5042242;28;20511;-55
2021/04/10 09:53:06;;;;;;;0.30;0.20;;;;;;;11.79;100.00;100002.53;5045639;28;20464;-54
2021/04/10 09:55:37;;;;;;;0.30;0.20;;;;;;;11.71;100.00;100004.56;5044465;28;20462;-55
2021/04/10 09:58:05;;;;;;;0.30;0.20;;;;;;;11.98;100.00;100008.88;5036557;28;20455;-54
2021/04/10 10:00:37;;;;;;;0.30;0.20;;;;;;;11.76;100.00;100006.13;5045419;28;20481;-55
2021/04/10 10:03:05;;;;;;;0.30;0.20;;;;;;;11.71;100.00;100001.91;5008046;28;21000;-55
2021/04/10 10:05:34;;;;;;;0.30;0.20;;;;;;;11.82;100.00;100005.06;5038768;28;20801;-55
2021/04/10 10:08:05;;;;;;;0.40;0.40;;;;;;;11.70;100.00;100000.16;5045283;28;20447;-55
2021/04/10 10:10:32;;;;;;;0.30;0.20;;;;;;;11.62;100.00;99995.13;5045662;28;20447;-55
2021/04/10 10:13:04;;;;;;;0.30;0.20;;;;;;;11.65;100.00;99996.78;5040032;28;20467;-55
2021/04/10 10:15:30;;;;;;;0.30;0.20;;;;;;;11.75;100.00;99996.41;5038997;28;21055;-55
2021/04/10 10:17:57;;;;;;;0.30;0.20;;;;;;;11.80;100.00;100001.59;5043249;28;20452;-55
2021/04/10 10:20:24;;;;;;;0.30;0.20;;;;;;;11.66;100.00;99986.13;5045886;28;20509;-55
2021/04/10 10:22:50;;;;;;;0.30;0.20;;;;;;;11.83;100.00;99993.50;5040489;28;20996;-55
2021/04/10 10:25:17;;;;;;;0.30;0.20;;;;;;;12.02;100.00;99994.50;5036738;28;20505;-55
2021/04/10 10:27:46;;;;;;;0.30;0.20;;;;;;;12.05;100.00;99999.69;5026260;28;20869;-56
2021/04/10 10:30:16;;;;;;;0.30;0.20;;;;;;;11.93;100.00;99999.34;5032057;28;20448;-56
2021/04/10 10:32:44;;;;;;;0.30;0.20;;;;;;;12.17;100.00;99993.03;5043542;28;20468;-56
2021/04/10 10:35:12;;;;;;;0.30;0.20;;;;;;;12.17;100.00;99987.69;5046065;28;20814;-56
2021/04/10 10:37:38;;;;;;;0.30;0.20;;;;;;;12.16;100.00;99989.50;5042837;28;20455;-56
2021/04/10 10:40:06;;;;;;;0.30;0.20;;;;;;;12.42;100.00;99984.91;5038829;28;20446;-56
2021/04/10 10:42:32;;;;;;;0.30;0.20;;;;;;;12.55;100.00;99985.28;5041762;28;20502;-56
2021/04/10 10:44:59;;;;;;;0.30;0.20;;;;;;;12.44;100.00;99983.03;5045437;28;20451;-56
2021/04/10 10:47:26;;;;;;;0.30;0.20;;;;;;;12.27;98.66;99978.41;5042653;28;20447;-56
2021/04/10 10:49:52;;;;;;;0.30;0.20;;;;;;;12.37;98.26;99978.91;5034639;28;20454;-56
2021/04/10 10:52:19;;;;;;;0.30;0.20;;;;;;;12.67;98.77;99982.97;5043216;28;20532;-56
2021/04/10 10:54:47;;;;;;;0.30;0.20;;;;;;;12.48;98.63;99986.47;5038246;28;20455;-56
2021/04/10 10:57:16;;;;;;;0.30;0.20;;;;;;;12.46;99.68;99983.84;5043622;28;20949;-56
2021/04/10 11:00:07;;;;;;;0.30;0.20;;;;;;;12.30;97.87;99974.75;5027186;28;20933;-56
2021/04/10 11:02:34;;;;;;;0.30;0.20;;;;;;;12.38;99.45;99972.66;5038261;28;20494;-56
2021/04/10 11:05:01;;;;;;;0.30;0.20;;;;;;;12.36;97.64;99970.03;5042635;28;20455;-56
2021/04/10 11:07:28;;;;;;;0.30;0.20;;;;;;;12.59;96.87;99968.19;5045144;28;20458;-56
2021/04/10 11:09:56;;;;;;;0.30;0.20;;;;;;;12.72;96.50;99956.09;5041234;28;20508;-56
2021/04/10 11:12:23;;;;;;;0.30;0.20;;;;;;;12.74;97.88;99956.88;5037668;28;20544;-55
2021/04/10 11:14:57;;;;;;;0.30;0.20;;;;;;;12.75;94.96;99951.50;5041593;28;20985;-55
2021/04/10 11:17:32;;;;;;;0.30;0.20;;;;;;;12.80;95.98;99950.44;5045290;28;20867;-54
2021/04/10 11:20:00;;;;;;;0.30;0.20;;;;;;;12.76;95.08;99955.03;5043586;28;20443;-54
2021/04/10 11:22:26;;;;;;;0.30;0.20;;;;;;;13.13;94.32;99946.28;5038539;28;20490;-56
2021/04/10 11:24:58;;;;;;;0.30;0.20;;;;;;;12.99;93.96;99952.22;5039374;28;20483;-55
2021/04/10 11:27:26;;;;;;;0.30;0.20;;;;;;;13.24;94.16;99940.50;5045371;28;20448;-56
2021/04/10 11:29:59;;;;;;;0.30;0.20;;;;;;;13.26;95.32;99942.16;5046854;28;20508;-57
2021/04/10 11:32:40;;;;;;;0.30;0.20;;;;;;;13.42;92.75;99941.47;5027653;28;20474;-56
2021/04/10 11:35:08;;;;;;;0.30;0.20;;;;;;;13.16;92.24;99940.81;5039534;28;20952;-56